createdAt,value
2022-12-23T00:01:03.292Z,98513.44
2022-12-23T00:03:31.778Z,98533.66
2022-12-23T00:05:59.993Z,98493.00
2022-12-23T00:08:27.738Z,98525.44
2022-12-23T00:10:56.977Z,98508.00
2022-12-23T00:13:42.567Z,98501.63
2022-12-23T00:16:15.338Z,98524.34
2022-12-23T00:18:42.750Z,98491.34
2022-12-23T00:21:12.893Z,98527.38
2022-12-23T00:23:42.898Z,98491.06
2022-12-23T00:26:16.842Z,98491.34
2022-12-23T00:28:44.867Z,98513.91
2022-12-23T00:31:13.442Z,98509.22
2022-12-23T00:33:42.981Z,98513.25
2022-12-23T00:36:24.014Z,98522.38
2022-12-23T00:39:09.777Z,98510.78
2022-12-23T00:41:55.311Z,98504.00
2022-12-23T00:44:22.473Z,98514.50
2022-12-23T00:46:50.304Z,98481.91
2022-12-23T00:49:38.492Z,98503.38
2022-12-23T00:52:08.531Z,98485.25
2022-12-23T00:54:35.638Z,98489.13
2022-12-23T00:57:02.777Z,98504.38
2022-12-23T01:24:18.858Z,98475.00
2022-12-23T01:26:45.729Z,98473.75
2022-12-23T01:29:12.769Z,98458.09
2022-12-23T01:31:40.607Z,98459.09
2022-12-23T01:34:07.741Z,98431.22
2022-12-23T01:36:34.653Z,98476.66
2022-12-23T01:39:01.734Z,98438.31
2022-12-23T01:41:49.844Z,98479.44
2022-12-23T01:44:54.145Z,98465.25
2022-12-23T01:47:34.097Z,98464.34
2022-12-23T01:50:07.498Z,98485.81
2022-12-23T01:52:40.237Z,98481.06
2022-12-23T01:55:08.248Z,98471.38
2022-12-23T01:57:38.910Z,98453.66
2022-12-23T02:00:27.776Z,98485.81
2022-12-23T02:03:13.529Z,98473.19
2022-12-23T02:05:42.501Z,98434.25
2022-12-23T02:08:28.712Z,98443.13
2022-12-23T02:11:09.299Z,98471.66
2022-12-23T02:13:39.437Z,98464.56
2022-12-23T02:16:28.857Z,98432.56
2022-12-23T02:19:14.578Z,98452.09
2022-12-23T02:21:56.597Z,98463.03
2022-12-23T02:24:41.841Z,98461.69
2022-12-23T02:27:11.913Z,98457.75
2022-12-23T02:30:18.856Z,98453.06
2022-12-23T02:33:50.652Z,98448.06
2022-12-23T02:36:33.933Z,98446.13
2022-12-23T02:39:30.031Z,98437.50
2022-12-23T02:42:19.736Z,98434.09
2022-12-23T02:45:07.782Z,98437.66
2022-12-23T02:47:52.758Z,98416.59
2022-12-23T02:50:25.925Z,98417.44
2022-12-23T02:52:57.488Z,98418.97
2022-12-23T02:55:33.085Z,98434.22
2022-12-23T02:58:06.177Z,98416.91
2022-12-23T03:00:34.993Z,98451.66
2022-12-23T03:03:02.414Z,98445.84
2022-12-23T03:05:42.792Z,98449.28
2022-12-23T03:08:27.111Z,98443.47
2022-12-23T03:11:08.708Z,98447.59
2022-12-23T03:13:44.940Z,98452.19
2022-12-23T03:16:38.830Z,98425.63
2022-12-23T03:19:20.963Z,98458.16
2022-12-23T03:22:06.298Z,98463.56
2022-12-23T03:24:49.100Z,98460.63
2022-12-23T03:27:26.054Z,98457.69
2022-12-23T03:30:08.444Z,98455.09
2022-12-23T03:32:48.799Z,98445.56
2022-12-23T03:35:20.310Z,98440.63
2022-12-23T03:37:53.297Z,98459.72
2022-12-23T03:40:41.904Z,98435.06
2022-12-23T03:43:18.529Z,98443.09
2022-12-23T03:45:52.268Z,98456.94
2022-12-23T03:48:27.422Z,98451.41
2022-12-23T03:50:59.274Z,98437.03
2022-12-23T03:53:32.532Z,98440.72
2022-12-23T03:56:06.221Z,98468.88
2022-12-23T03:58:48.559Z,98455.97
2022-12-23T04:01:46.233Z,98466.53
2022-12-23T04:04:22.549Z,98461.72
2022-12-23T04:06:57.849Z,98451.72
2022-12-23T04:09:28.084Z,98444.34
2022-12-23T04:11:57.043Z,98436.88
2022-12-23T04:14:24.152Z,98455.06
2022-12-23T04:16:55.590Z,98458.91
2022-12-23T04:19:25.654Z,98464.03
2022-12-23T04:21:55.919Z,98454.91
2022-12-23T04:24:23.543Z,98447.66
2022-12-23T04:26:50.580Z,98458.91
2022-12-23T04:29:17.624Z,98435.63
2022-12-23T04:31:44.635Z,98447.00
2022-12-23T04:34:11.961Z,98435.91
2022-12-23T04:36:39.082Z,98454.63
2022-12-23T04:39:06.521Z,98439.22
2022-12-23T04:41:33.932Z,98447.81
2022-12-23T04:44:01.089Z,98431.59
2022-12-23T04:46:28.298Z,98424.53
2022-12-23T04:48:55.557Z,98420.22
2022-12-23T04:51:23.457Z,98421.59
2022-12-23T04:53:50.755Z,98451.97
2022-12-23T04:56:20.164Z,98432.81
2022-12-23T04:58:47.355Z,98428.69
2022-12-23T05:01:14.548Z,98451.13
2022-12-23T05:03:41.774Z,98414.56
2022-12-23T05:06:08.740Z,98439.06
2022-12-23T05:08:36.401Z,98437.25
2022-12-23T05:11:04.046Z,98406.50
2022-12-23T05:13:38.163Z,98413.00
2022-12-23T05:16:05.889Z,98417.84
2022-12-23T05:18:33.255Z,98416.59
2022-12-23T05:21:00.423Z,98444.13
2022-12-23T05:23:27.572Z,98433.06
2022-12-23T05:25:56.226Z,98426.81
2022-12-23T05:28:24.479Z,98414.38
2022-12-23T05:31:13.516Z,98429.44
2022-12-23T05:33:41.443Z,98402.44
2022-12-23T05:36:09.720Z,98406.75
2022-12-23T05:38:37.412Z,98418.13
2022-12-23T05:41:05.341Z,98440.09
2022-12-23T05:43:32.916Z,98433.75
2022-12-23T05:46:00.435Z,98374.56
2022-12-23T05:48:27.706Z,98382.03
2022-12-23T05:50:55.202Z,98429.97
2022-12-23T05:53:24.176Z,98428.28
2022-12-23T05:55:51.511Z,98392.69
2022-12-23T05:58:19.305Z,98423.28
2022-12-23T06:00:46.474Z,98403.22
2022-12-23T06:03:14.070Z,98389.06
2022-12-23T06:05:43.703Z,98400.44
2022-12-23T06:08:10.940Z,98385.88
2022-12-23T06:10:38.070Z,98389.91
2022-12-23T06:13:05.183Z,98413.28
2022-12-23T06:15:32.537Z,98399.75
2022-12-23T06:17:59.639Z,98377.84
2022-12-23T06:20:26.695Z,98397.22
2022-12-23T06:22:55.034Z,98379.50
2022-12-23T06:25:22.560Z,98396.97
2022-12-23T06:27:49.897Z,98358.78
2022-12-23T06:30:17.057Z,98345.59
2022-12-23T06:32:45.404Z,98373.41
2022-12-23T06:35:12.505Z,98400.28
2022-12-23T06:40:21.853Z,98413.72
2022-12-23T06:42:49.840Z,98412.75
2022-12-23T06:45:17.817Z,98414.38
2022-12-23T06:47:50.425Z,98417.72
2022-12-23T06:50:17.966Z,98400.53
2022-12-23T06:52:45.882Z,98377.59
2022-12-23T06:55:17.871Z,98393.63
2022-12-23T06:57:45.391Z,98368.84
2022-12-23T07:00:15.763Z,98401.31
2022-12-23T07:02:43.144Z,98388.69
2022-12-23T07:05:10.431Z,98389.75
2022-12-23T07:07:37.746Z,98374.66
2022-12-23T07:10:05.881Z,98375.06
2022-12-23T07:12:33.233Z,98396.34
2022-12-23T07:15:09.982Z,98381.78
2022-12-23T07:17:39.217Z,98389.69
2022-12-23T07:20:07.220Z,98399.13
2022-12-23T07:22:34.591Z,98394.31
2022-12-23T07:25:04.324Z,98379.63
2022-12-23T07:27:31.761Z,98423.34
2022-12-23T07:29:59.229Z,98404.94
2022-12-23T07:32:26.376Z,98400.75
2022-12-23T07:34:53.365Z,98402.63
2022-12-23T07:37:20.989Z,98376.91
2022-12-23T07:39:48.075Z,98378.03
2022-12-23T07:45:02.811Z,98345.47
2022-12-23T07:47:32.017Z,98390.19
2022-12-23T07:49:58.989Z,98379.88
2022-12-23T07:52:26.057Z,98322.84
2022-12-23T07:54:53.105Z,98371.84
2022-12-23T07:57:20.295Z,98338.59
2022-12-23T07:59:47.379Z,98364.66
2022-12-23T08:02:14.582Z,98362.22
2022-12-23T08:04:46.065Z,98348.66
2022-12-23T08:07:13.856Z,98367.44
2022-12-23T08:09:41.153Z,98348.19
2022-12-23T08:12:08.354Z,98374.06
2022-12-23T08:14:35.551Z,98349.84
2022-12-23T08:17:02.979Z,98374.22
2022-12-23T08:19:30.486Z,98356.78
2022-12-23T08:21:58.425Z,98341.78
2022-12-23T08:24:25.624Z,98352.28
2022-12-23T08:26:52.740Z,98329.28
2022-12-23T08:29:19.724Z,98363.31
2022-12-23T08:31:47.010Z,98365.91
2022-12-23T08:34:14.729Z,98367.19
2022-12-23T08:36:42.188Z,98378.50
2022-12-23T08:39:11.471Z,98371.13
2022-12-23T08:41:43.878Z,98350.56
2022-12-23T08:44:11.342Z,98366.47
2022-12-23T08:46:39.250Z,98340.28
2022-12-23T08:49:07.747Z,98356.56
2022-12-23T08:51:35.887Z,98347.16
2022-12-23T08:54:03.177Z,98320.34
2022-12-23T08:56:36.432Z,98327.81
2022-12-23T08:59:04.030Z,98355.47
2022-12-23T09:01:33.581Z,98349.34
2022-12-23T09:04:06.027Z,98344.53
2022-12-23T09:06:37.525Z,98337.59
2022-12-23T09:09:05.924Z,98291.22
2022-12-23T09:11:34.092Z,98288.38
2022-12-23T09:14:02.461Z,98306.38
2022-12-23T09:16:29.984Z,98326.22
2022-12-23T09:18:57.716Z,98304.03
2022-12-23T09:21:27.478Z,98333.97
2022-12-23T09:23:54.657Z,98299.13
2022-12-23T09:26:28.127Z,98319.81
2022-12-23T09:28:56.496Z,98303.38
2022-12-23T09:31:24.764Z,98312.41
2022-12-23T09:33:54.025Z,98305.66
2022-12-23T09:36:22.529Z,98303.91
2022-12-23T09:38:58.514Z,98302.63
2022-12-23T09:41:52.509Z,98296.66
2022-12-23T09:44:44.843Z,98297.34
2022-12-23T09:47:17.539Z,98279.84
2022-12-23T09:50:00.918Z,98296.91
2022-12-23T09:52:48.113Z,98279.78
2022-12-23T09:55:20.073Z,98288.59
2022-12-23T09:57:56.918Z,98292.63
2022-12-23T10:00:26.309Z,98247.13
2022-12-23T10:03:21.368Z,98260.53
2022-12-23T10:06:10.627Z,98236.03
2022-12-23T10:08:42.041Z,98186.09
2022-12-23T10:11:24.256Z,98257.41
2022-12-23T10:14:04.696Z,98251.38
2022-12-23T10:16:43.250Z,98200.22
2022-12-23T10:19:34.057Z,98242.47
2022-12-23T10:22:06.477Z,98188.78
2022-12-23T10:24:43.213Z,98167.78
2022-12-23T10:27:30.927Z,98221.81
2022-12-23T10:30:33.795Z,98190.91
2022-12-23T10:33:09.854Z,98209.38
2022-12-23T10:35:55.503Z,98212.59
2022-12-23T10:38:29.050Z,98198.44
2022-12-23T10:41:14.607Z,98199.03
2022-12-23T10:43:54.445Z,98195.06
2022-12-23T10:46:34.037Z,98190.44
2022-12-23T10:49:23.275Z,98198.66
2022-12-23T10:51:58.153Z,98199.94
2022-12-23T10:54:35.315Z,98172.06
2022-12-23T10:57:07.181Z,98136.66
2022-12-23T10:59:36.125Z,98204.09
2022-12-23T11:02:13.132Z,98208.75
2022-12-23T11:04:47.412Z,98216.53
2022-12-23T11:07:44.522Z,98227.84
2022-12-23T11:10:22.559Z,98180.59
2022-12-23T11:12:53.843Z,98226.72
2022-12-23T11:15:35.291Z,98159.22
2022-12-23T11:18:07.167Z,98197.31
2022-12-23T11:20:36.262Z,98205.53
2022-12-23T11:23:05.619Z,98184.50
2022-12-23T11:25:40.683Z,98198.66
2022-12-23T11:31:09.937Z,98187.44
2022-12-23T11:33:50.789Z,98176.16
2022-12-23T11:36:32.070Z,98149.09
2022-12-23T11:39:15.179Z,98209.44
2022-12-23T11:41:52.861Z,98188.06
2022-12-23T11:44:33.089Z,98212.31
2022-12-23T11:47:22.221Z,98200.38
2022-12-23T11:49:51.201Z,98219.91
2022-12-23T11:52:24.697Z,98209.28
2022-12-23T11:54:57.917Z,98226.16
2022-12-23T11:57:31.559Z,98228.13
2022-12-23T12:00:04.531Z,98221.19
2022-12-23T12:02:42.669Z,98179.84
2022-12-23T12:05:28.333Z,98216.31
2022-12-23T12:08:02.887Z,98142.09
2022-12-23T12:10:33.694Z,98188.72
2022-12-23T12:13:07.150Z,98188.72
2022-12-23T12:18:20.123Z,98205.44
2022-12-23T12:20:54.658Z,98185.25
2022-12-23T12:23:35.820Z,98216.91
2022-12-23T12:26:29.713Z,98176.19
2022-12-23T12:29:03.097Z,98198.06
2022-12-23T12:40:37.769Z,98172.97
2022-12-23T12:43:31.215Z,98172.72
2022-12-23T12:51:42.980Z,98133.22
2022-12-23T12:54:22.783Z,98165.19
2022-12-23T12:56:53.003Z,98151.06
2022-12-23T12:59:25.570Z,98168.72
2022-12-23T13:05:13.723Z,98164.88
2022-12-23T13:07:44.321Z,98153.81
2022-12-23T13:10:17.773Z,98140.88
2022-12-23T13:13:04.169Z,98139.22
2022-12-23T13:15:55.138Z,98163.53
2022-12-23T13:18:43.618Z,98139.25
2022-12-23T13:21:30.274Z,98140.47
2022-12-23T13:27:12.053Z,98150.81
2022-12-23T13:29:43.692Z,98146.88
2022-12-23T13:32:57.177Z,98151.16
2022-12-23T13:36:01.392Z,98151.16
2022-12-23T13:47:21.629Z,98151.41
2022-12-23T13:53:00.834Z,98148.25
2022-12-23T13:56:03.963Z,98147.09
2022-12-23T14:04:40.913Z,98098.97
2022-12-23T14:07:23.955Z,98089.84
2022-12-23T14:12:41.416Z,98113.03
2022-12-23T14:15:27.380Z,98146.63
2022-12-23T14:18:16.211Z,98124.06
2022-12-23T14:27:17.325Z,98139.69
2022-12-23T14:30:08.212Z,98111.56
2022-12-23T14:33:01.420Z,98132.00
2022-12-23T14:35:36.997Z,98133.13
2022-12-23T14:38:20.319Z,98145.66
2022-12-23T14:40:56.511Z,98132.94
2022-12-23T14:43:30.200Z,98135.78
2022-12-23T14:46:06.130Z,98060.94
2022-12-23T15:12:14.727Z,98059.84
2022-12-23T16:36:28.223Z,98075.09
2022-12-23T18:00:29.929Z,98067.81
2022-12-23T18:05:48.049Z,98088.00
2022-12-23T18:13:49.425Z,98076.13
2022-12-23T18:24:25.685Z,98096.44
2022-12-23T18:26:53.410Z,98074.41
2022-12-23T18:32:06.426Z,98080.16
2022-12-23T18:34:34.557Z,98039.41
2022-12-23T18:48:18.987Z,98067.41
2022-12-23T18:50:46.931Z,98065.94
2022-12-23T18:53:24.718Z,98075.53
2022-12-23T18:55:53.559Z,98041.53
2022-12-23T18:58:21.897Z,98068.59
2022-12-23T19:00:51.446Z,98086.94
2022-12-23T19:03:25.578Z,98083.13
2022-12-23T19:05:54.126Z,98071.88
2022-12-23T19:08:26.828Z,98064.41
2022-12-23T19:10:55.337Z,98063.75
2022-12-23T19:13:22.571Z,98102.97
2022-12-23T19:15:50.249Z,98109.22
2022-12-23T19:18:20.033Z,98066.88
2022-12-23T19:20:49.189Z,98056.44
2022-12-23T19:23:16.807Z,98110.06
2022-12-23T19:25:55.327Z,98095.34
2022-12-23T19:28:22.974Z,98085.72
2022-12-23T19:30:50.073Z,98117.66
2022-12-23T19:33:17.529Z,98107.59
2022-12-23T19:35:45.061Z,98106.38
2022-12-23T19:38:12.748Z,98098.16
2022-12-23T19:40:41.071Z,98115.53
2022-12-23T19:43:08.673Z,98094.31
2022-12-23T19:45:35.816Z,98079.94
2022-12-23T19:48:02.801Z,98131.88
2022-12-23T19:50:29.969Z,98101.56
2022-12-23T19:52:57.580Z,98112.34
2022-12-23T19:55:24.884Z,98121.75
2022-12-23T19:57:52.455Z,98100.25
2022-12-23T20:00:20.583Z,98133.34
2022-12-23T20:02:47.828Z,98125.25
2022-12-23T20:05:17.396Z,98134.34
2022-12-23T20:07:44.387Z,98150.53
2022-12-23T20:10:11.689Z,98130.47
2022-12-23T20:12:40.037Z,98133.22
2022-12-23T20:15:07.774Z,98168.03
2022-12-23T20:17:34.855Z,98158.09
2022-12-23T20:20:01.816Z,98152.19
2022-12-23T20:22:28.931Z,98157.78
2022-12-23T20:24:55.944Z,98148.03
2022-12-23T20:27:27.864Z,98141.84
2022-12-23T20:29:55.447Z,98146.81
2022-12-23T20:32:22.835Z,98151.41
2022-12-23T20:34:50.438Z,98152.22
2022-12-23T20:37:17.737Z,98163.75
2022-12-23T20:39:44.754Z,98147.31
2022-12-23T20:42:12.481Z,98166.38
2022-12-23T20:44:39.679Z,98172.63
2022-12-23T20:47:06.983Z,98135.38
2022-12-23T20:49:34.484Z,98137.78
2022-12-23T20:52:01.793Z,98165.59
2022-12-23T20:54:33.327Z,98180.88
2022-12-23T20:57:02.684Z,98184.69
2022-12-23T20:59:29.901Z,98170.47
2022-12-23T21:01:59.345Z,98180.25
2022-12-23T21:04:27.446Z,98170.41
2022-12-23T21:06:54.528Z,98185.16
2022-12-23T21:09:21.568Z,98179.41
2022-12-23T21:11:49.146Z,98159.03
2022-12-23T21:14:16.461Z,98167.25
2022-12-23T21:16:43.861Z,98196.09
2022-12-23T21:19:16.759Z,98171.41
2022-12-23T21:21:44.309Z,98177.88
2022-12-23T21:24:11.751Z,98180.50
2022-12-23T21:26:38.871Z,98198.06
2022-12-23T21:29:07.051Z,98220.53
2022-12-23T21:31:43.522Z,98221.50
2022-12-23T21:34:18.244Z,98195.97
2022-12-23T21:36:45.311Z,98196.28
2022-12-23T21:39:16.335Z,98231.22
2022-12-23T21:41:43.753Z,98210.00
2022-12-23T21:44:13.727Z,98226.66
2022-12-23T21:46:41.081Z,98208.56
2022-12-23T21:49:08.453Z,98197.63
2022-12-23T21:51:40.351Z,98228.06
2022-12-23T21:54:10.352Z,98233.56
2022-12-23T21:56:37.774Z,98239.84
2022-12-23T21:59:15.151Z,98224.47
2022-12-23T22:02:00.930Z,98230.41
2022-12-23T22:04:30.378Z,98232.84
2022-12-23T22:06:57.772Z,98229.84
2022-12-23T22:09:25.690Z,98223.66
2022-12-23T22:11:52.726Z,98227.34
2022-12-23T22:14:20.027Z,98215.75
2022-12-23T22:16:47.304Z,98234.22
2022-12-23T22:19:14.999Z,98214.38
2022-12-23T22:21:42.929Z,98229.78
2022-12-23T22:24:10.358Z,98242.50
2022-12-23T22:26:37.626Z,98262.47
2022-12-23T22:29:06.253Z,98240.13
2022-12-23T22:31:42.201Z,98260.38
2022-12-23T22:34:15.875Z,98261.34
2022-12-23T22:36:43.523Z,98273.28
2022-12-23T22:39:19.374Z,98235.81
2022-12-23T22:41:50.210Z,98248.53
2022-12-23T22:44:17.739Z,98278.19
2022-12-23T22:46:44.982Z,98258.28
2022-12-23T22:49:13.238Z,98281.50
2022-12-23T22:51:42.701Z,98282.94
2022-12-23T22:54:10.223Z,98276.84
2022-12-23T22:56:37.772Z,98265.22
2022-12-23T22:59:07.971Z,98291.44
2022-12-23T23:01:36.594Z,98263.09
2022-12-23T23:04:04.637Z,98262.97
2022-12-23T23:06:34.436Z,98298.41
2022-12-23T23:09:01.939Z,98269.06
2022-12-23T23:11:29.650Z,98280.47
2022-12-23T23:13:57.452Z,98290.59
2022-12-23T23:16:25.551Z,98277.44
2022-12-23T23:18:53.844Z,98291.69
2022-12-23T23:21:22.053Z,98284.38
2022-12-23T23:23:50.162Z,98308.25
2022-12-23T23:26:18.454Z,98313.41
2022-12-23T23:28:45.564Z,98301.78
2022-12-23T23:33:59.971Z,98291.03
2022-12-23T23:36:27.184Z,98286.66
2022-12-23T23:38:54.376Z,98300.66
2022-12-23T23:41:23.590Z,98312.88
2022-12-23T23:43:52.166Z,98298.41
2022-12-23T23:46:19.985Z,98323.75
2022-12-23T23:48:47.497Z,98318.16
2022-12-23T23:51:14.604Z,98297.22
2022-12-23T23:53:41.472Z,98315.53
2022-12-23T23:56:09.648Z,98322.63
2022-12-23T23:58:37.697Z,98322.09
